sensor_id;sensor_type;location;lat;lon;timestamp;P1;durP1;ratioP1;P2;durP2;ratioP2
4424;SDS011;2225;53.568;13.266;2024-01-07T00:00:00;4.50;;;1.90;;
4424;SDS011;2225;53.568;13.266;2024-01-07T00:02:29;7.33;;;1.77;;
4424;SDS011;2225;53.568;13.266;2024-01-07T00:04:57;3.37;;;1.73;;
4424;SDS011;2225;53.568;13.266;2024-01-07T00:07:24;4.43;;;2.20;;
4424;SDS011;2225;53.568;13.266;2024-01-07T00:09:51;6.17;;;2.20;;
4424;SDS011;2225;53.568;13.266;2024-01-07T00:12:18;4.17;;;1.50;;
4424;SDS011;2225;53.568;13.266;2024-01-07T00:14:45;12.57;;;2.10;;
4424;SDS011;2225;53.568;13.266;2024-01-07T00:17:12;2.87;;;1.30;;
4424;SDS011;2225;53.568;13.266;2024-01-07T00:19:39;9.80;;;2.37;;
4424;SDS011;2225;53.568;13.266;2024-01-07T00:22:07;5.83;;;1.90;;
4424;SDS011;2225;53.568;13.266;2024-01-07T00:24:33;2.90;;;1.30;;
4424;SDS011;2225;53.568;13.266;2024-01-07T00:27:00;5.47;;;2.10;;
4424;SDS011;2225;53.568;13.266;2024-01-07T00:29:27;5.33;;;2.50;;
4424;SDS011;2225;53.568;13.266;2024-01-07T00:31:54;6.80;;;2.60;;
4424;SDS011;2225;53.568;13.266;2024-01-07T00:34:21;4.20;;;2.10;;
4424;SDS011;2225;53.568;13.266;2024-01-07T00:36:49;2.63;;;1.40;;
4424;SDS011;2225;53.568;13.266;2024-01-07T00:39:16;4.33;;;2.07;;
4424;SDS011;2225;53.568;13.266;2024-01-07T00:41:43;4.43;;;2.20;;
4424;SDS011;2225;53.568;13.266;2024-01-07T00:44:10;4.20;;;2.10;;
4424;SDS011;2225;53.568;13.266;2024-01-07T00:46:36;3.73;;;2.30;;
4424;SDS011;2225;53.568;13.266;2024-01-07T00:49:04;4.57;;;2.00;;
4424;SDS011;2225;53.568;13.266;2024-01-07T00:51:31;4.70;;;2.10;;
4424;SDS011;2225;53.568;13.266;2024-01-07T00:53:58;2.57;;;1.43;;
4424;SDS011;2225;53.568;13.266;2024-01-07T00:56:25;3.40;;;1.80;;
4424;SDS011;2225;53.568;13.266;2024-01-07T00:58:53;2.93;;;1.53;;
4424;SDS011;2225;53.568;13.266;2024-01-07T01:01:20;3.90;;;1.70;;
4424;SDS011;2225;53.568;13.266;2024-01-07T01:03:47;5.53;;;2.03;;
4424;SDS011;2225;53.568;13.266;2024-01-07T01:06:14;5.47;;;1.70;;
4424;SDS011;2225;53.568;13.266;2024-01-07T01:08:41;4.23;;;1.87;;
4424;SDS011;2225;53.568;13.266;2024-01-07T01:11:11;4.07;;;1.83;;
4424;SDS011;2225;53.568;13.266;2024-01-07T01:13:38;4.47;;;1.60;;
4424;SDS011;2225;53.568;13.266;2024-01-07T01:16:05;2.73;;;1.43;;
4424;SDS011;2225;53.568;13.266;2024-01-07T01:18:32;4.60;;;1.70;;
4424;SDS011;2225;53.568;13.266;2024-01-07T01:20:59;2.93;;;1.67;;
4424;SDS011;2225;53.568;13.266;2024-01-07T01:23:26;6.80;;;1.40;;
4424;SDS011;2225;53.568;13.266;2024-01-07T01:25:53;3.13;;;1.60;;
4424;SDS011;2225;53.568;13.266;2024-01-07T01:28:20;2.03;;;1.57;;
4424;SDS011;2225;53.568;13.266;2024-01-07T01:30:47;4.67;;;2.27;;
4424;SDS011;2225;53.568;13.266;2024-01-07T01:33:14;3.03;;;1.80;;
4424;SDS011;2225;53.568;13.266;2024-01-07T01:35:41;4.07;;;2.00;;
4424;SDS011;2225;53.568;13.266;2024-01-07T01:38:09;3.40;;;1.73;;
4424;SDS011;2225;53.568;13.266;2024-01-07T01:40:37;3.87;;;1.20;;
4424;SDS011;2225;53.568;13.266;2024-01-07T01:43:04;3.40;;;1.60;;
4424;SDS011;2225;53.568;13.266;2024-01-07T01:45:31;3.20;;;1.67;;
4424;SDS011;2225;53.568;13.266;2024-01-07T01:47:58;2.80;;;1.33;;
4424;SDS011;2225;53.568;13.266;2024-01-07T01:50:27;5.67;;;1.50;;
4424;SDS011;2225;53.568;13.266;2024-01-07T01:52:55;2.93;;;1.50;;
4424;SDS011;2225;53.568;13.266;2024-01-07T01:55:22;5.37;;;1.47;;
4424;SDS011;2225;53.568;13.266;2024-01-07T01:57:50;2.00;;;1.00;;
4424;SDS011;2225;53.568;13.266;2024-01-07T02:00:18;1.60;;;1.17;;
4424;SDS011;2225;53.568;13.266;2024-01-07T02:02:45;3.27;;;1.40;;
4424;SDS011;2225;53.568;13.266;2024-01-07T02:05:12;2.33;;;1.10;;
4424;SDS011;2225;53.568;13.266;2024-01-07T02:07:41;2.53;;;1.40;;
4424;SDS011;2225;53.568;13.266;2024-01-07T02:10:08;3.90;;;1.50;;
4424;SDS011;2225;53.568;13.266;2024-01-07T02:12:36;5.77;;;1.03;;
4424;SDS011;2225;53.568;13.266;2024-01-07T02:15:03;3.10;;;1.40;;
4424;SDS011;2225;53.568;13.266;2024-01-07T02:17:31;4.40;;;1.30;;
4424;SDS011;2225;53.568;13.266;2024-01-07T02:19:58;2.57;;;1.50;;
4424;SDS011;2225;53.568;13.266;2024-01-07T02:22:25;3.63;;;1.80;;
4424;SDS011;2225;53.568;13.266;2024-01-07T02:24:52;5.13;;;1.47;;
4424;SDS011;2225;53.568;13.266;2024-01-07T02:27:19;9.73;;;1.70;;
4424;SDS011;2225;53.568;13.266;2024-01-07T02:29:46;4.00;;;1.63;;
4424;SDS011;2225;53.568;13.266;2024-01-07T02:32:13;3.50;;;1.67;;
4424;SDS011;2225;53.568;13.266;2024-01-07T02:34:40;3.30;;;1.70;;
4424;SDS011;2225;53.568;13.266;2024-01-07T02:37:07;4.03;;;1.50;;
4424;SDS011;2225;53.568;13.266;2024-01-07T02:39:34;5.77;;;1.80;;
4424;SDS011;2225;53.568;13.266;2024-01-07T02:42:01;3.03;;;1.50;;
4424;SDS011;2225;53.568;13.266;2024-01-07T02:44:28;3.60;;;1.63;;
4424;SDS011;2225;53.568;13.266;2024-01-07T02:46:56;4.33;;;1.50;;
4424;SDS011;2225;53.568;13.266;2024-01-07T02:49:22;3.83;;;1.57;;
4424;SDS011;2225;53.568;13.266;2024-01-07T02:51:50;6.03;;;1.70;;
4424;SDS011;2225;53.568;13.266;2024-01-07T02:54:16;2.47;;;1.20;;
4424;SDS011;2225;53.568;13.266;2024-01-07T02:56:43;2.97;;;1.50;;
4424;SDS011;2225;53.568;13.266;2024-01-07T02:59:10;2.43;;;1.60;;
4424;SDS011;2225;53.568;13.266;2024-01-07T03:01:37;3.00;;;1.47;;
4424;SDS011;2225;53.568;13.266;2024-01-07T03:04:09;3.40;;;1.30;;
4424;SDS011;2225;53.568;13.266;2024-01-07T03:06:38;2.80;;;1.47;;
4424;SDS011;2225;53.568;13.266;2024-01-07T03:09:06;2.67;;;1.50;;
4424;SDS011;2225;53.568;13.266;2024-01-07T03:11:33;2.53;;;1.20;;
4424;SDS011;2225;53.568;13.266;2024-01-07T03:14:05;3.70;;;1.90;;
4424;SDS011;2225;53.568;13.266;2024-01-07T03:16:32;6.20;;;1.53;;
4424;SDS011;2225;53.568;13.266;2024-01-07T03:18:59;4.33;;;1.33;;
4424;SDS011;2225;53.568;13.266;2024-01-07T03:21:26;2.43;;;1.33;;
4424;SDS011;2225;53.568;13.266;2024-01-07T03:23:53;2.13;;;1.20;;
4424;SDS011;2225;53.568;13.266;2024-01-07T03:26:20;2.80;;;1.13;;
4424;SDS011;2225;53.568;13.266;2024-01-07T03:28:47;3.27;;;1.47;;
4424;SDS011;2225;53.568;13.266;2024-01-07T03:31:14;2.80;;;1.50;;
4424;SDS011;2225;53.568;13.266;2024-01-07T03:33:43;1.87;;;1.20;;
4424;SDS011;2225;53.568;13.266;2024-01-07T03:36:11;6.60;;;1.43;;
4424;SDS011;2225;53.568;13.266;2024-01-07T03:38:40;4.23;;;1.40;;
4424;SDS011;2225;53.568;13.266;2024-01-07T03:41:07;4.27;;;1.60;;
4424;SDS011;2225;53.568;13.266;2024-01-07T03:43:35;5.60;;;1.80;;
4424;SDS011;2225;53.568;13.266;2024-01-07T03:46:02;2.07;;;1.37;;
4424;SDS011;2225;53.568;13.266;2024-01-07T03:48:29;5.23;;;1.53;;
4424;SDS011;2225;53.568;13.266;2024-01-07T03:50:56;3.30;;;1.80;;
4424;SDS011;2225;53.568;13.266;2024-01-07T03:53:23;3.90;;;1.53;;
4424;SDS011;2225;53.568;13.266;2024-01-07T03:55:50;2.77;;;1.83;;
4424;SDS011;2225;53.568;13.266;2024-01-07T03:58:17;3.53;;;1.83;;
4424;SDS011;2225;53.568;13.266;2024-01-07T04:00:44;2.37;;;1.37;;
4424;SDS011;2225;53.568;13.266;2024-01-07T04:03:11;2.37;;;1.43;;
4424;SDS011;2225;53.568;13.266;2024-01-07T04:05:38;5.90;;;1.70;;
4424;SDS011;2225;53.568;13.266;2024-01-07T04:08:05;6.53;;;1.93;;
4424;SDS011;2225;53.568;13.266;2024-01-07T04:10:36;4.80;;;1.93;;
4424;SDS011;2225;53.568;13.266;2024-01-07T04:13:03;7.77;;;1.90;;
4424;SDS011;2225;53.568;13.266;2024-01-07T04:15:33;2.70;;;1.37;;
4424;SDS011;2225;53.568;13.266;2024-01-07T04:18:01;3.00;;;1.60;;
4424;SDS011;2225;53.568;13.266;2024-01-07T04:20:30;4.93;;;1.60;;
4424;SDS011;2225;53.568;13.266;2024-01-07T04:22:57;4.13;;;2.00;;
4424;SDS011;2225;53.568;13.266;2024-01-07T04:25:24;3.73;;;1.97;;
4424;SDS011;2225;53.568;13.266;2024-01-07T04:27:51;4.63;;;2.00;;
4424;SDS011;2225;53.568;13.266;2024-01-07T04:30:18;2.70;;;1.50;;
4424;SDS011;2225;53.568;13.266;2024-01-07T04:32:46;2.70;;;1.90;;
4424;SDS011;2225;53.568;13.266;2024-01-07T04:35:13;6.67;;;2.07;;
4424;SDS011;2225;53.568;13.266;2024-01-07T04:37:41;4.10;;;1.80;;
4424;SDS011;2225;53.568;13.266;2024-01-07T04:40:08;3.37;;;1.90;;
4424;SDS011;2225;53.568;13.266;2024-01-07T04:42:36;4.27;;;2.07;;
4424;SDS011;2225;53.568;13.266;2024-01-07T04:45:03;5.20;;;1.70;;
4424;SDS011;2225;53.568;13.266;2024-01-07T04:47:31;13.43;;;5.97;;
4424;SDS011;2225;53.568;13.266;2024-01-07T04:50:03;14.80;;;3.77;;
4424;SDS011;2225;53.568;13.266;2024-01-07T04:52:30;6.70;;;2.37;;
4424;SDS011;2225;53.568;13.266;2024-01-07T04:54:57;3.60;;;1.87;;
4424;SDS011;2225;53.568;13.266;2024-01-07T04:57:24;3.30;;;1.80;;
4424;SDS011;2225;53.568;13.266;2024-01-07T04:59:52;4.00;;;2.07;;
4424;SDS011;2225;53.568;13.266;2024-01-07T05:02:19;5.20;;;1.57;;
4424;SDS011;2225;53.568;13.266;2024-01-07T05:04:46;4.20;;;2.00;;
4424;SDS011;2225;53.568;13.266;2024-01-07T05:07:13;6.30;;;2.57;;
4424;SDS011;2225;53.568;13.266;2024-01-07T05:09:40;3.27;;;1.60;;
4424;SDS011;2225;53.568;13.266;2024-01-07T05:12:07;3.90;;;2.07;;
4424;SDS011;2225;53.568;13.266;2024-01-07T05:14:34;6.97;;;1.67;;
4424;SDS011;2225;53.568;13.266;2024-01-07T05:17:03;6.27;;;1.97;;
4424;SDS011;2225;53.568;13.266;2024-01-07T05:19:30;2.80;;;1.77;;
4424;SDS011;2225;53.568;13.266;2024-01-07T05:21:58;6.00;;;2.27;;
4424;SDS011;2225;53.568;13.266;2024-01-07T05:24:25;12.30;;;1.90;;
4424;SDS011;2225;53.568;13.266;2024-01-07T05:26:52;6.40;;;1.70;;
4424;SDS011;2225;53.568;13.266;2024-01-07T05:29:19;3.87;;;1.77;;
4424;SDS011;2225;53.568;13.266;2024-01-07T05:31:46;4.37;;;1.60;;
4424;SDS011;2225;53.568;13.266;2024-01-07T05:34:13;3.13;;;1.63;;
4424;SDS011;2225;53.568;13.266;2024-01-07T05:36:41;3.00;;;1.90;;
4424;SDS011;2225;53.568;13.266;2024-01-07T05:39:08;5.47;;;1.70;;
4424;SDS011;2225;53.568;13.266;2024-01-07T05:41:36;3.33;;;1.80;;
4424;SDS011;2225;53.568;13.266;2024-01-07T05:44:07;2.80;;;1.60;;
4424;SDS011;2225;53.568;13.266;2024-01-07T05:46:37;3.77;;;1.80;;
4424;SDS011;2225;53.568;13.266;2024-01-07T05:49:06;5.40;;;2.50;;
4424;SDS011;2225;53.568;13.266;2024-01-07T05:51:38;4.07;;;2.40;;
4424;SDS011;2225;53.568;13.266;2024-01-07T05:54:06;2.60;;;1.40;;
4424;SDS011;2225;53.568;13.266;2024-01-07T05:56:38;6.70;;;1.97;;
4424;SDS011;2225;53.568;13.266;2024-01-07T05:59:06;5.23;;;1.23;;
4424;SDS011;2225;53.568;13.266;2024-01-07T06:01:34;3.93;;;1.57;;
4424;SDS011;2225;53.568;13.266;2024-01-07T06:04:01;5.30;;;2.20;;
4424;SDS011;2225;53.568;13.266;2024-01-07T06:06:29;7.60;;;1.87;;
4424;SDS011;2225;53.568;13.266;2024-01-07T06:08:56;3.10;;;2.00;;
4424;SDS011;2225;53.568;13.266;2024-01-07T06:11:23;3.60;;;2.17;;
4424;SDS011;2225;53.568;13.266;2024-01-07T06:13:50;6.73;;;1.87;;
4424;SDS011;2225;53.568;13.266;2024-01-07T06:16:17;4.63;;;1.83;;
4424;SDS011;2225;53.568;13.266;2024-01-07T06:18:44;3.40;;;1.77;;
4424;SDS011;2225;53.568;13.266;2024-01-07T06:21:11;4.87;;;2.07;;
4424;SDS011;2225;53.568;13.266;2024-01-07T06:23:38;5.20;;;1.93;;
4424;SDS011;2225;53.568;13.266;2024-01-07T06:26:05;3.67;;;1.70;;
4424;SDS011;2225;53.568;13.266;2024-01-07T06:28:32;3.53;;;2.03;;
4424;SDS011;2225;53.568;13.266;2024-01-07T06:31:02;5.60;;;2.13;;
4424;SDS011;2225;53.568;13.266;2024-01-07T06:33:29;4.33;;;1.87;;
4424;SDS011;2225;53.568;13.266;2024-01-07T06:35:56;4.27;;;1.80;;
4424;SDS011;2225;53.568;13.266;2024-01-07T06:38:23;6.23;;;2.10;;
4424;SDS011;2225;53.568;13.266;2024-01-07T06:40:50;3.70;;;1.90;;
4424;SDS011;2225;53.568;13.266;2024-01-07T06:43:17;3.97;;;2.10;;
4424;SDS011;2225;53.568;13.266;2024-01-07T06:45:44;4.63;;;1.97;;
4424;SDS011;2225;53.568;13.266;2024-01-07T06:48:11;7.00;;;2.90;;
4424;SDS011;2225;53.568;13.266;2024-01-07T06:50:39;2.80;;;1.80;;
4424;SDS011;2225;53.568;13.266;2024-01-07T06:53:06;3.80;;;2.20;;
4424;SDS011;2225;53.568;13.266;2024-01-07T06:55:33;5.00;;;1.87;;
4424;SDS011;2225;53.568;13.266;2024-01-07T06:58:00;5.50;;;1.97;;
4424;SDS011;2225;53.568;13.266;2024-01-07T07:00:27;3.83;;;2.30;;
4424;SDS011;2225;53.568;13.266;2024-01-07T07:02:54;4.17;;;1.77;;
4424;SDS011;2225;53.568;13.266;2024-01-07T07:05:21;2.87;;;1.90;;
4424;SDS011;2225;53.568;13.266;2024-01-07T07:07:48;4.30;;;1.80;;
4424;SDS011;2225;53.568;13.266;2024-01-07T07:10:19;3.30;;;1.83;;
4424;SDS011;2225;53.568;13.266;2024-01-07T07:12:46;5.97;;;2.30;;
4424;SDS011;2225;53.568;13.266;2024-01-07T07:15:12;4.10;;;2.33;;
4424;SDS011;2225;53.568;13.266;2024-01-07T07:17:39;4.13;;;2.10;;
4424;SDS011;2225;53.568;13.266;2024-01-07T07:20:07;2.90;;;1.53;;
4424;SDS011;2225;53.568;13.266;2024-01-07T07:22:35;3.67;;;1.67;;
4424;SDS011;2225;53.568;13.266;2024-01-07T07:25:02;3.27;;;1.70;;
4424;SDS011;2225;53.568;13.266;2024-01-07T07:27:29;3.97;;;1.53;;
4424;SDS011;2225;53.568;13.266;2024-01-07T07:29:56;4.43;;;1.17;;
4424;SDS011;2225;53.568;13.266;2024-01-07T07:32:23;3.90;;;1.50;;
4424;SDS011;2225;53.568;13.266;2024-01-07T07:34:50;5.13;;;1.60;;
4424;SDS011;2225;53.568;13.266;2024-01-07T07:37:17;7.70;;;1.43;;
4424;SDS011;2225;53.568;13.266;2024-01-07T07:39:46;2.80;;;1.50;;
4424;SDS011;2225;53.568;13.266;2024-01-07T07:42:13;2.73;;;1.10;;
4424;SDS011;2225;53.568;13.266;2024-01-07T07:44:40;2.63;;;1.13;;
4424;SDS011;2225;53.568;13.266;2024-01-07T07:47:08;1.87;;;0.90;;
4424;SDS011;2225;53.568;13.266;2024-01-07T07:49:38;2.63;;;1.17;;
4424;SDS011;2225;53.568;13.266;2024-01-07T07:52:07;4.23;;;1.40;;
4424;SDS011;2225;53.568;13.266;2024-01-07T07:54:37;4.60;;;1.33;;
4424;SDS011;2225;53.568;13.266;2024-01-07T07:57:04;2.57;;;1.20;;
4424;SDS011;2225;53.568;13.266;2024-01-07T07:59:31;3.00;;;1.27;;
4424;SDS011;2225;53.568;13.266;2024-01-07T08:01:58;3.93;;;1.10;;
4424;SDS011;2225;53.568;13.266;2024-01-07T08:04:26;2.27;;;0.90;;
4424;SDS011;2225;53.568;13.266;2024-01-07T08:06:53;2.13;;;0.80;;
4424;SDS011;2225;53.568;13.266;2024-01-07T08:09:22;2.27;;;0.80;;
4424;SDS011;2225;53.568;13.266;2024-01-07T08:11:51;3.57;;;1.20;;
4424;SDS011;2225;53.568;13.266;2024-01-07T08:14:18;2.47;;;1.00;;
4424;SDS011;2225;53.568;13.266;2024-01-07T08:16:45;8.90;;;1.20;;
4424;SDS011;2225;53.568;13.266;2024-01-07T08:19:12;2.60;;;1.10;;
4424;SDS011;2225;53.568;13.266;2024-01-07T08:21:40;2.00;;;1.10;;
4424;SDS011;2225;53.568;13.266;2024-01-07T08:24:07;3.63;;;1.23;;
4424;SDS011;2225;53.568;13.266;2024-01-07T08:26:36;1.90;;;1.20;;
4424;SDS011;2225;53.568;13.266;2024-01-07T08:29:04;5.50;;;1.50;;
4424;SDS011;2225;53.568;13.266;2024-01-07T08:31:31;3.40;;;1.27;;
4424;SDS011;2225;53.568;13.266;2024-01-07T08:33:58;3.13;;;1.53;;
4424;SDS011;2225;53.568;13.266;2024-01-07T08:36:26;4.33;;;1.43;;
4424;SDS011;2225;53.568;13.266;2024-01-07T08:38:53;3.50;;;1.50;;
4424;SDS011;2225;53.568;13.266;2024-01-07T08:41:20;2.73;;;1.47;;
4424;SDS011;2225;53.568;13.266;2024-01-07T08:43:47;4.33;;;1.90;;
4424;SDS011;2225;53.568;13.266;2024-01-07T08:46:14;3.90;;;1.70;;
4424;SDS011;2225;53.568;13.266;2024-01-07T08:48:41;4.20;;;1.50;;
4424;SDS011;2225;53.568;13.266;2024-01-07T08:51:08;3.90;;;1.53;;
4424;SDS011;2225;53.568;13.266;2024-01-07T08:53:35;3.70;;;1.73;;
4424;SDS011;2225;53.568;13.266;2024-01-07T08:56:02;4.07;;;2.33;;
4424;SDS011;2225;53.568;13.266;2024-01-07T08:58:29;3.80;;;2.17;;
4424;SDS011;2225;53.568;13.266;2024-01-07T09:00:56;3.93;;;2.20;;
4424;SDS011;2225;53.568;13.266;2024-01-07T09:03:23;3.33;;;2.03;;
4424;SDS011;2225;53.568;13.266;2024-01-07T09:05:51;4.70;;;2.07;;
4424;SDS011;2225;53.568;13.266;2024-01-07T09:08:18;3.33;;;1.63;;
4424;SDS011;2225;53.568;13.266;2024-01-07T09:10:45;4.70;;;2.50;;
4424;SDS011;2225;53.568;13.266;2024-01-07T09:13:12;4.07;;;1.83;;
4424;SDS011;2225;53.568;13.266;2024-01-07T09:15:39;4.40;;;1.80;;
4424;SDS011;2225;53.568;13.266;2024-01-07T09:18:06;4.20;;;2.00;;
4424;SDS011;2225;53.568;13.266;2024-01-07T09:20:33;3.50;;;1.67;;
4424;SDS011;2225;53.568;13.266;2024-01-07T09:23:01;3.30;;;1.47;;
4424;SDS011;2225;53.568;13.266;2024-01-07T09:25:27;3.90;;;1.73;;
4424;SDS011;2225;53.568;13.266;2024-01-07T09:27:55;8.50;;;1.83;;
4424;SDS011;2225;53.568;13.266;2024-01-07T09:30:22;3.23;;;1.53;;
4424;SDS011;2225;53.568;13.266;2024-01-07T09:32:49;6.53;;;2.00;;
4424;SDS011;2225;53.568;13.266;2024-01-07T09:35:16;3.97;;;2.20;;
4424;SDS011;2225;53.568;13.266;2024-01-07T09:37:43;6.00;;;1.90;;
4424;SDS011;2225;53.568;13.266;2024-01-07T09:40:11;4.17;;;1.80;;
4424;SDS011;2225;53.568;13.266;2024-01-07T09:42:38;6.83;;;2.07;;
4424;SDS011;2225;53.568;13.266;2024-01-07T09:45:06;5.80;;;2.10;;
4424;SDS011;2225;53.568;13.266;2024-01-07T09:47:33;6.60;;;1.87;;
4424;SDS011;2225;53.568;13.266;2024-01-07T09:50:01;4.50;;;2.13;;
4424;SDS011;2225;53.568;13.266;2024-01-07T09:52:29;3.87;;;1.70;;
4424;SDS011;2225;53.568;13.266;2024-01-07T09:55:02;3.70;;;1.90;;
4424;SDS011;2225;53.568;13.266;2024-01-07T09:57:30;2.80;;;1.13;;
4424;SDS011;2225;53.568;13.266;2024-01-07T09:59:57;2.27;;;1.20;;
4424;SDS011;2225;53.568;13.266;2024-01-07T10:02:26;2.30;;;1.30;;
4424;SDS011;2225;53.568;13.266;2024-01-07T10:04:53;2.67;;;1.20;;
4424;SDS011;2225;53.568;13.266;2024-01-07T10:07:20;3.30;;;1.60;;
4424;SDS011;2225;53.568;13.266;2024-01-07T10:09:47;3.90;;;1.37;;
4424;SDS011;2225;53.568;13.266;2024-01-07T10:12:14;5.00;;;1.83;;
4424;SDS011;2225;53.568;13.266;2024-01-07T10:14:41;4.23;;;1.83;;
4424;SDS011;2225;53.568;13.266;2024-01-07T10:17:14;3.10;;;1.40;;
4424;SDS011;2225;53.568;13.266;2024-01-07T10:19:44;10.93;;;1.70;;
4424;SDS011;2225;53.568;13.266;2024-01-07T10:22:14;3.40;;;1.63;;
4424;SDS011;2225;53.568;13.266;2024-01-07T10:24:42;4.43;;;1.90;;
4424;SDS011;2225;53.568;13.266;2024-01-07T10:27:09;5.60;;;1.40;;
4424;SDS011;2225;53.568;13.266;2024-01-07T10:29:37;3.40;;;1.60;;
4424;SDS011;2225;53.568;13.266;2024-01-07T10:32:04;2.87;;;1.40;;
4424;SDS011;2225;53.568;13.266;2024-01-07T10:34:33;4.90;;;1.70;;
4424;SDS011;2225;53.568;13.266;2024-01-07T10:37:03;3.07;;;1.73;;
4424;SDS011;2225;53.568;13.266;2024-01-07T10:39:31;3.23;;;1.37;;
4424;SDS011;2225;53.568;13.266;2024-01-07T10:41:59;5.10;;;1.70;;
4424;SDS011;2225;53.568;13.266;2024-01-07T10:44:27;2.63;;;1.30;;
4424;SDS011;2225;53.568;13.266;2024-01-07T10:46:57;3.27;;;1.70;;
4424;SDS011;2225;53.568;13.266;2024-01-07T10:49:27;10.20;;;1.93;;
4424;SDS011;2225;53.568;13.266;2024-01-07T10:52:05;2.37;;;1.20;;
4424;SDS011;2225;53.568;13.266;2024-01-07T10:54:35;2.60;;;1.53;;
4424;SDS011;2225;53.568;13.266;2024-01-07T10:57:13;3.80;;;1.50;;
4424;SDS011;2225;53.568;13.266;2024-01-07T11:00:18;2.97;;;1.60;;
4424;SDS011;2225;53.568;13.266;2024-01-07T11:08:54;3.47;;;1.70;;
4424;SDS011;2225;53.568;13.266;2024-01-07T11:11:30;3.53;;;1.50;;
4424;SDS011;2225;53.568;13.266;2024-01-07T11:14:04;2.43;;;1.27;;
4424;SDS011;2225;53.568;13.266;2024-01-07T11:16:40;3.97;;;1.70;;
4424;SDS011;2225;53.568;13.266;2024-01-07T11:19:08;4.90;;;2.00;;
4424;SDS011;2225;53.568;13.266;2024-01-07T11:21:35;2.90;;;1.43;;
4424;SDS011;2225;53.568;13.266;2024-01-07T11:24:03;2.20;;;1.37;;
4424;SDS011;2225;53.568;13.266;2024-01-07T11:26:30;7.33;;;1.93;;
4424;SDS011;2225;53.568;13.266;2024-01-07T11:28:57;3.70;;;1.77;;
4424;SDS011;2225;53.568;13.266;2024-01-07T11:31:44;3.53;;;1.97;;
4424;SDS011;2225;53.568;13.266;2024-01-07T11:37:10;4.70;;;2.03;;
4424;SDS011;2225;53.568;13.266;2024-01-07T11:39:47;2.30;;;1.30;;
4424;SDS011;2225;53.568;13.266;2024-01-07T11:42:16;5.30;;;1.63;;
4424;SDS011;2225;53.568;13.266;2024-01-07T11:44:46;4.00;;;1.60;;
4424;SDS011;2225;53.568;13.266;2024-01-07T11:47:17;2.20;;;1.10;;
4424;SDS011;2225;53.568;13.266;2024-01-07T11:49:46;3.53;;;1.30;;
4424;SDS011;2225;53.568;13.266;2024-01-07T11:52:13;4.37;;;2.00;;
4424;SDS011;2225;53.568;13.266;2024-01-07T11:54:40;3.47;;;1.90;;
4424;SDS011;2225;53.568;13.266;2024-01-07T11:57:08;5.83;;;2.30;;
4424;SDS011;2225;53.568;13.266;2024-01-07T11:59:36;4.23;;;1.90;;
4424;SDS011;2225;53.568;13.266;2024-01-07T12:02:07;4.93;;;1.70;;
4424;SDS011;2225;53.568;13.266;2024-01-07T12:04:34;3.13;;;1.97;;
4424;SDS011;2225;53.568;13.266;2024-01-07T12:07:01;7.67;;;2.20;;
4424;SDS011;2225;53.568;13.266;2024-01-07T12:09:29;4.30;;;1.90;;
4424;SDS011;2225;53.568;13.266;2024-01-07T12:11:57;7.67;;;1.93;;
4424;SDS011;2225;53.568;13.266;2024-01-07T12:14:24;3.57;;;1.93;;
4424;SDS011;2225;53.568;13.266;2024-01-07T12:16:52;4.43;;;2.10;;
4424;SDS011;2225;53.568;13.266;2024-01-07T12:19:19;3.77;;;1.70;;
4424;SDS011;2225;53.568;13.266;2024-01-07T12:21:49;4.07;;;1.97;;
4424;SDS011;2225;53.568;13.266;2024-01-07T12:24:27;3.70;;;1.93;;
4424;SDS011;2225;53.568;13.266;2024-01-07T12:26:54;6.33;;;1.87;;
4424;SDS011;2225;53.568;13.266;2024-01-07T12:29:21;4.10;;;2.10;;
4424;SDS011;2225;53.568;13.266;2024-01-07T12:31:50;3.83;;;1.80;;
4424;SDS011;2225;53.568;13.266;2024-01-07T12:34:18;3.90;;;2.17;;
4424;SDS011;2225;53.568;13.266;2024-01-07T12:36:49;7.40;;;2.43;;
4424;SDS011;2225;53.568;13.266;2024-01-07T12:39:17;4.17;;;2.40;;
4424;SDS011;2225;53.568;13.266;2024-01-07T12:41:45;4.93;;;2.53;;
4424;SDS011;2225;53.568;13.266;2024-01-07T12:44:13;4.13;;;2.60;;
4424;SDS011;2225;53.568;13.266;2024-01-07T12:46:40;6.97;;;2.97;;
4424;SDS011;2225;53.568;13.266;2024-01-07T12:49:07;8.90;;;2.83;;
4424;SDS011;2225;53.568;13.266;2024-01-07T12:51:34;5.77;;;3.30;;
4424;SDS011;2225;53.568;13.266;2024-01-07T12:54:01;5.27;;;2.77;;
4424;SDS011;2225;53.568;13.266;2024-01-07T12:56:29;7.67;;;2.30;;
4424;SDS011;2225;53.568;13.266;2024-01-07T12:58:57;4.13;;;2.93;;
4424;SDS011;2225;53.568;13.266;2024-01-07T13:01:24;3.80;;;2.43;;
4424;SDS011;2225;53.568;13.266;2024-01-07T13:03:51;5.23;;;2.53;;
4424;SDS011;2225;53.568;13.266;2024-01-07T13:06:19;7.13;;;3.67;;
4424;SDS011;2225;53.568;13.266;2024-01-07T13:08:46;5.23;;;3.17;;
4424;SDS011;2225;53.568;13.266;2024-01-07T13:11:13;9.67;;;2.37;;
4424;SDS011;2225;53.568;13.266;2024-01-07T13:13:42;5.83;;;2.93;;
4424;SDS011;2225;53.568;13.266;2024-01-07T13:16:10;4.77;;;2.97;;
4424;SDS011;2225;53.568;13.266;2024-01-07T13:18:37;5.50;;;3.40;;
4424;SDS011;2225;53.568;13.266;2024-01-07T13:21:04;10.73;;;3.50;;
4424;SDS011;2225;53.568;13.266;2024-01-07T13:23:33;7.00;;;3.20;;
4424;SDS011;2225;53.568;13.266;2024-01-07T13:26:00;4.70;;;2.77;;
4424;SDS011;2225;53.568;13.266;2024-01-07T13:28:31;5.33;;;3.30;;
4424;SDS011;2225;53.568;13.266;2024-01-07T13:30:58;4.50;;;2.60;;
4424;SDS011;2225;53.568;13.266;2024-01-07T13:33:26;7.80;;;2.70;;
4424;SDS011;2225;53.568;13.266;2024-01-07T13:35:53;4.67;;;2.83;;
4424;SDS011;2225;53.568;13.266;2024-01-07T13:38:20;6.73;;;2.80;;
4424;SDS011;2225;53.568;13.266;2024-01-07T13:40:47;5.70;;;3.00;;
4424;SDS011;2225;53.568;13.266;2024-01-07T13:43:14;6.13;;;2.80;;
4424;SDS011;2225;53.568;13.266;2024-01-07T13:45:41;6.23;;;3.10;;
4424;SDS011;2225;53.568;13.266;2024-01-07T13:48:09;5.77;;;3.10;;
4424;SDS011;2225;53.568;13.266;2024-01-07T13:50:36;6.93;;;3.50;;
4424;SDS011;2225;53.568;13.266;2024-01-07T13:53:03;6.80;;;2.70;;
4424;SDS011;2225;53.568;13.266;2024-01-07T13:55:30;5.03;;;2.83;;
4424;SDS011;2225;53.568;13.266;2024-01-07T13:57:57;9.27;;;3.30;;
4424;SDS011;2225;53.568;13.266;2024-01-07T14:00:25;5.10;;;3.33;;
4424;SDS011;2225;53.568;13.266;2024-01-07T14:02:52;5.00;;;2.77;;
4424;SDS011;2225;53.568;13.266;2024-01-07T14:05:19;5.93;;;3.10;;
4424;SDS011;2225;53.568;13.266;2024-01-07T14:07:47;7.50;;;3.40;;
4424;SDS011;2225;53.568;13.266;2024-01-07T14:10:14;6.30;;;3.23;;
4424;SDS011;2225;53.568;13.266;2024-01-07T14:12:44;6.20;;;3.67;;
4424;SDS011;2225;53.568;13.266;2024-01-07T14:15:12;6.73;;;3.47;;
4424;SDS011;2225;53.568;13.266;2024-01-07T14:17:39;10.67;;;3.30;;
4424;SDS011;2225;53.568;13.266;2024-01-07T14:20:06;7.23;;;3.30;;
4424;SDS011;2225;53.568;13.266;2024-01-07T14:22:34;8.27;;;3.63;;
4424;SDS011;2225;53.568;13.266;2024-01-07T14:25:01;9.67;;;3.10;;
4424;SDS011;2225;53.568;13.266;2024-01-07T14:27:29;7.50;;;3.57;;
4424;SDS011;2225;53.568;13.266;2024-01-07T14:29:56;10.60;;;3.00;;
4424;SDS011;2225;53.568;13.266;2024-01-07T14:32:23;4.57;;;2.73;;
4424;SDS011;2225;53.568;13.266;2024-01-07T14:34:50;9.10;;;3.57;;
4424;SDS011;2225;53.568;13.266;2024-01-07T14:37:17;8.20;;;3.47;;
4424;SDS011;2225;53.568;13.266;2024-01-07T14:39:44;8.75;;;4.00;;
4424;SDS011;2225;53.568;13.266;2024-01-07T14:42:11;12.13;;;3.67;;
4424;SDS011;2225;53.568;13.266;2024-01-07T14:44:38;7.23;;;3.90;;
4424;SDS011;2225;53.568;13.266;2024-01-07T14:47:16;9.47;;;4.00;;
4424;SDS011;2225;53.568;13.266;2024-01-07T14:49:44;10.13;;;3.80;;
4424;SDS011;2225;53.568;13.266;2024-01-07T14:52:11;13.33;;;4.20;;
4424;SDS011;2225;53.568;13.266;2024-01-07T14:54:38;7.70;;;3.90;;
4424;SDS011;2225;53.568;13.266;2024-01-07T14:57:05;7.60;;;3.97;;
4424;SDS011;2225;53.568;13.266;2024-01-07T14:59:34;5.23;;;3.70;;
4424;SDS011;2225;53.568;13.266;2024-01-07T15:02:04;9.20;;;4.00;;
4424;SDS011;2225;53.568;13.266;2024-01-07T15:04:33;9.50;;;4.63;;
4424;SDS011;2225;53.568;13.266;2024-01-07T15:07:00;9.00;;;4.40;;
4424;SDS011;2225;53.568;13.266;2024-01-07T15:09:27;10.67;;;4.57;;
4424;SDS011;2225;53.568;13.266;2024-01-07T15:11:54;13.07;;;4.10;;